sensor_id;sensor_type;location;lat;lon;timestamp;P1;durP1;ratioP1;P2;durP2;ratioP2
35990;SDS011;22064;42.672;23.282;2023-06-14T00:00:21;18.27;;;8.90;;
35990;SDS011;22064;42.672;23.282;2023-06-14T00:02:47;19.30;;;7.75;;
35990;SDS011;22064;42.672;23.282;2023-06-14T00:05:13;17.38;;;8.48;;
35990;SDS011;22064;42.672;23.282;2023-06-14T00:07:41;17.98;;;8.10;;
35990;SDS011;22064;42.672;23.282;2023-06-14T00:10:10;17.17;;;7.10;;
35990;SDS011;22064;42.672;23.282;2023-06-14T00:12:37;14.13;;;7.35;;
35990;SDS011;22064;42.672;23.282;2023-06-14T00:15:04;19.38;;;8.60;;
35990;SDS011;22064;42.672;23.282;2023-06-14T00:17:31;19.00;;;8.40;;
35990;SDS011;22064;42.672;23.282;2023-06-14T00:19:57;15.40;;;7.40;;
35990;SDS011;22064;42.672;23.282;2023-06-14T00:22:24;15.07;;;7.70;;
35990;SDS011;22064;42.672;23.282;2023-06-14T00:24:50;17.33;;;7.90;;
35990;SDS011;22064;42.672;23.282;2023-06-14T00:27:19;14.70;;;7.20;;
35990;SDS011;22064;42.672;23.282;2023-06-14T00:29:45;14.48;;;7.10;;
35990;SDS011;22064;42.672;23.282;2023-06-14T00:32:11;15.68;;;7.75;;
35990;SDS011;22064;42.672;23.282;2023-06-14T00:34:37;15.40;;;7.05;;
35990;SDS011;22064;42.672;23.282;2023-06-14T00:37:02;14.35;;;7.00;;
35990;SDS011;22064;42.672;23.282;2023-06-14T00:39:29;13.82;;;6.55;;
35990;SDS011;22064;42.672;23.282;2023-06-14T00:41:54;16.98;;;8.05;;
35990;SDS011;22064;42.672;23.282;2023-06-14T00:44:20;15.07;;;7.15;;
35990;SDS011;22064;42.672;23.282;2023-06-14T00:46:47;15.18;;;6.68;;
35990;SDS011;22064;42.672;23.282;2023-06-14T00:49:14;13.25;;;6.47;;
35990;SDS011;22064;42.672;23.282;2023-06-14T00:51:42;13.80;;;6.85;;
35990;SDS011;22064;42.672;23.282;2023-06-14T00:54:08;16.23;;;7.78;;
35990;SDS011;22064;42.672;23.282;2023-06-14T00:56:36;15.68;;;6.93;;
35990;SDS011;22064;42.672;23.282;2023-06-14T00:59:02;16.17;;;7.57;;
35990;SDS011;22064;42.672;23.282;2023-06-14T01:01:32;12.32;;;5.70;;
35990;SDS011;22064;42.672;23.282;2023-06-14T01:03:59;16.75;;;7.38;;
35990;SDS011;22064;42.672;23.282;2023-06-14T01:06:39;17.73;;;8.00;;
35990;SDS011;22064;42.672;23.282;2023-06-14T01:14:26;17.45;;;7.60;;
35990;SDS011;22064;42.672;23.282;2023-06-14T01:16:54;15.98;;;7.28;;
35990;SDS011;22064;42.672;23.282;2023-06-14T01:19:21;16.60;;;7.15;;
35990;SDS011;22064;42.672;23.282;2023-06-14T01:21:51;17.00;;;7.68;;
35990;SDS011;22064;42.672;23.282;2023-06-14T01:24:18;17.58;;;7.82;;
35990;SDS011;22064;42.672;23.282;2023-06-14T01:26:52;20.05;;;8.43;;
35990;SDS011;22064;42.672;23.282;2023-06-14T01:29:24;21.08;;;9.10;;
35990;SDS011;22064;42.672;23.282;2023-06-14T01:31:53;19.83;;;8.55;;
35990;SDS011;22064;42.672;23.282;2023-06-14T01:34:20;20.63;;;9.35;;
35990;SDS011;22064;42.672;23.282;2023-06-14T01:36:49;18.58;;;8.75;;
35990;SDS011;22064;42.672;23.282;2023-06-14T01:39:17;18.20;;;7.65;;
35990;SDS011;22064;42.672;23.282;2023-06-14T01:41:44;17.52;;;6.95;;
35990;SDS011;22064;42.672;23.282;2023-06-14T01:44:12;15.05;;;7.25;;
35990;SDS011;22064;42.672;23.282;2023-06-14T01:46:41;12.93;;;6.50;;
35990;SDS011;22064;42.672;23.282;2023-06-14T01:49:08;12.32;;;6.03;;
35990;SDS011;22064;42.672;23.282;2023-06-14T01:51:34;12.27;;;5.57;;
35990;SDS011;22064;42.672;23.282;2023-06-14T01:54:00;12.57;;;5.93;;
35990;SDS011;22064;42.672;23.282;2023-06-14T01:56:26;12.02;;;6.07;;
35990;SDS011;22064;42.672;23.282;2023-06-14T01:58:53;13.27;;;5.60;;
35990;SDS011;22064;42.672;23.282;2023-06-14T02:01:19;13.70;;;6.32;;
35990;SDS011;22064;42.672;23.282;2023-06-14T02:03:49;14.30;;;6.60;;
35990;SDS011;22064;42.672;23.282;2023-06-14T02:06:16;14.73;;;6.40;;
35990;SDS011;22064;42.672;23.282;2023-06-14T02:08:42;12.65;;;6.05;;
35990;SDS011;22064;42.672;23.282;2023-06-14T02:11:08;13.45;;;6.15;;
35990;SDS011;22064;42.672;23.282;2023-06-14T02:13:34;15.15;;;7.05;;
35990;SDS011;22064;42.672;23.282;2023-06-14T02:16:00;17.98;;;7.45;;
35990;SDS011;22064;42.672;23.282;2023-06-14T02:18:28;15.05;;;6.95;;
35990;SDS011;22064;42.672;23.282;2023-06-14T02:20:55;13.15;;;6.38;;
35990;SDS011;22064;42.672;23.282;2023-06-14T02:23:21;13.98;;;6.82;;
35990;SDS011;22064;42.672;23.282;2023-06-14T02:25:47;16.95;;;7.25;;
35990;SDS011;22064;42.672;23.282;2023-06-14T02:28:13;15.93;;;7.90;;
35990;SDS011;22064;42.672;23.282;2023-06-14T02:30:39;14.30;;;6.55;;
35990;SDS011;22064;42.672;23.282;2023-06-14T02:33:06;14.95;;;7.25;;
35990;SDS011;22064;42.672;23.282;2023-06-14T02:35:32;18.02;;;7.03;;
35990;SDS011;22064;42.672;23.282;2023-06-14T02:37:57;15.60;;;6.95;;
35990;SDS011;22064;42.672;23.282;2023-06-14T02:40:24;15.40;;;7.05;;
35990;SDS011;22064;42.672;23.282;2023-06-14T02:42:50;15.82;;;6.90;;
35990;SDS011;22064;42.672;23.282;2023-06-14T02:45:16;12.43;;;6.20;;
35990;SDS011;22064;42.672;23.282;2023-06-14T02:47:43;14.93;;;6.97;;
35990;SDS011;22064;42.672;23.282;2023-06-14T02:50:11;16.10;;;6.88;;
35990;SDS011;22064;42.672;23.282;2023-06-14T02:52:37;12.32;;;6.55;;
35990;SDS011;22064;42.672;23.282;2023-06-14T02:55:03;17.45;;;7.30;;
35990;SDS011;22064;42.672;23.282;2023-06-14T02:57:30;14.45;;;6.60;;
35990;SDS011;22064;42.672;23.282;2023-06-14T02:59:56;16.23;;;6.57;;
35990;SDS011;22064;42.672;23.282;2023-06-14T03:02:22;13.77;;;6.38;;
35990;SDS011;22064;42.672;23.282;2023-06-14T03:04:48;12.23;;;6.00;;
35990;SDS011;22064;42.672;23.282;2023-06-14T03:07:17;14.98;;;6.25;;
35990;SDS011;22064;42.672;23.282;2023-06-14T03:09:46;13.80;;;6.95;;
35990;SDS011;22064;42.672;23.282;2023-06-14T03:12:12;13.40;;;6.55;;
35990;SDS011;22064;42.672;23.282;2023-06-14T03:14:39;14.13;;;6.90;;
35990;SDS011;22064;42.672;23.282;2023-06-14T03:17:06;11.85;;;6.05;;
35990;SDS011;22064;42.672;23.282;2023-06-14T03:19:34;15.70;;;6.65;;
35990;SDS011;22064;42.672;23.282;2023-06-14T03:22:00;14.35;;;6.95;;
35990;SDS011;22064;42.672;23.282;2023-06-14T03:24:29;14.60;;;6.68;;
35990;SDS011;22064;42.672;23.282;2023-06-14T03:26:58;15.53;;;7.53;;
35990;SDS011;22064;42.672;23.282;2023-06-14T03:29:26;14.10;;;6.10;;
35990;SDS011;22064;42.672;23.282;2023-06-14T03:31:56;15.13;;;6.70;;
35990;SDS011;22064;42.672;23.282;2023-06-14T03:34:33;15.65;;;6.85;;
35990;SDS011;22064;42.672;23.282;2023-06-14T03:37:01;14.50;;;6.78;;
35990;SDS011;22064;42.672;23.282;2023-06-14T03:39:28;14.50;;;6.60;;
35990;SDS011;22064;42.672;23.282;2023-06-14T03:41:55;16.25;;;7.15;;
35990;SDS011;22064;42.672;23.282;2023-06-14T03:44:21;18.27;;;7.68;;
35990;SDS011;22064;42.672;23.282;2023-06-14T03:46:47;15.60;;;7.15;;
35990;SDS011;22064;42.672;23.282;2023-06-14T03:49:13;16.40;;;6.93;;
35990;SDS011;22064;42.672;23.282;2023-06-14T03:51:43;15.70;;;7.25;;
35990;SDS011;22064;42.672;23.282;2023-06-14T03:54:09;17.58;;;7.90;;
35990;SDS011;22064;42.672;23.282;2023-06-14T03:56:36;15.95;;;7.05;;
35990;SDS011;22064;42.672;23.282;2023-06-14T03:59:03;16.10;;;6.25;;
35990;SDS011;22064;42.672;23.282;2023-06-14T04:01:29;15.10;;;6.90;;
35990;SDS011;22064;42.672;23.282;2023-06-14T04:06:25;14.10;;;6.93;;
35990;SDS011;22064;42.672;23.282;2023-06-14T04:08:58;15.77;;;6.88;;
35990;SDS011;22064;42.672;23.282;2023-06-14T04:11:29;14.30;;;6.85;;
35990;SDS011;22064;42.672;23.282;2023-06-14T04:13:57;13.82;;;6.60;;
35990;SDS011;22064;42.672;23.282;2023-06-14T04:16:24;16.55;;;7.10;;
35990;SDS011;22064;42.672;23.282;2023-06-14T04:18:50;12.55;;;6.38;;
35990;SDS011;22064;42.672;23.282;2023-06-14T04:21:18;18.65;;;8.25;;
35990;SDS011;22064;42.672;23.282;2023-06-14T04:23:45;15.55;;;7.53;;
35990;SDS011;22064;42.672;23.282;2023-06-14T04:26:13;15.75;;;7.88;;
35990;SDS011;22064;42.672;23.282;2023-06-14T04:28:40;16.23;;;8.10;;
35990;SDS011;22064;42.672;23.282;2023-06-14T04:31:08;15.23;;;6.93;;
35990;SDS011;22064;42.672;23.282;2023-06-14T04:33:37;14.90;;;6.65;;
35990;SDS011;22064;42.672;23.282;2023-06-14T04:36:15;15.70;;;6.65;;
35990;SDS011;22064;42.672;23.282;2023-06-14T04:38:43;13.33;;;6.43;;
35990;SDS011;22064;42.672;23.282;2023-06-14T04:41:12;15.07;;;6.35;;
35990;SDS011;22064;42.672;23.282;2023-06-14T04:43:39;11.88;;;6.55;;
35990;SDS011;22064;42.672;23.282;2023-06-14T04:46:06;11.52;;;6.78;;
35990;SDS011;22064;42.672;23.282;2023-06-14T04:48:39;13.30;;;6.57;;
35990;SDS011;22064;42.672;23.282;2023-06-14T04:51:09;13.48;;;7.18;;
35990;SDS011;22064;42.672;23.282;2023-06-14T04:53:35;13.40;;;7.10;;
35990;SDS011;22064;42.672;23.282;2023-06-14T04:56:02;13.25;;;6.90;;
35990;SDS011;22064;42.672;23.282;2023-06-14T04:58:30;14.13;;;7.07;;
35990;SDS011;22064;42.672;23.282;2023-06-14T05:00:57;12.65;;;7.00;;
35990;SDS011;22064;42.672;23.282;2023-06-14T05:03:25;13.75;;;6.88;;
35990;SDS011;22064;42.672;23.282;2023-06-14T05:05:51;15.18;;;7.07;;
35990;SDS011;22064;42.672;23.282;2023-06-14T05:08:19;14.55;;;7.22;;
35990;SDS011;22064;42.672;23.282;2023-06-14T05:10:49;14.45;;;7.28;;
35990;SDS011;22064;42.672;23.282;2023-06-14T05:13:16;14.68;;;7.32;;
35990;SDS011;22064;42.672;23.282;2023-06-14T05:15:44;14.93;;;7.40;;
35990;SDS011;22064;42.672;23.282;2023-06-14T05:18:10;14.75;;;7.65;;
35990;SDS011;22064;42.672;23.282;2023-06-14T05:20:36;15.77;;;7.13;;
35990;SDS011;22064;42.672;23.282;2023-06-14T05:23:07;13.98;;;7.05;;
35990;SDS011;22064;42.672;23.282;2023-06-14T05:25:34;15.63;;;7.43;;
35990;SDS011;22064;42.672;23.282;2023-06-14T05:28:00;16.45;;;8.02;;
35990;SDS011;22064;42.672;23.282;2023-06-14T05:30:25;19.20;;;8.45;;
35990;SDS011;22064;42.672;23.282;2023-06-14T05:32:52;18.65;;;9.40;;
35990;SDS011;22064;42.672;23.282;2023-06-14T05:35:18;20.17;;;9.57;;
35990;SDS011;22064;42.672;23.282;2023-06-14T05:37:44;19.98;;;9.90;;
35990;SDS011;22064;42.672;23.282;2023-06-14T05:40:10;19.65;;;9.07;;
35990;SDS011;22064;42.672;23.282;2023-06-14T05:42:36;20.20;;;9.30;;
35990;SDS011;22064;42.672;23.282;2023-06-14T05:45:02;22.25;;;10.32;;
35990;SDS011;22064;42.672;23.282;2023-06-14T05:47:28;18.90;;;9.35;;
35990;SDS011;22064;42.672;23.282;2023-06-14T05:49:54;19.17;;;9.15;;
35990;SDS011;22064;42.672;23.282;2023-06-14T05:52:20;21.23;;;9.73;;
35990;SDS011;22064;42.672;23.282;2023-06-14T05:54:46;19.63;;;10.35;;
35990;SDS011;22064;42.672;23.282;2023-06-14T05:57:12;21.17;;;10.40;;
35990;SDS011;22064;42.672;23.282;2023-06-14T05:59:38;20.35;;;9.32;;
35990;SDS011;22064;42.672;23.282;2023-06-14T06:02:05;21.95;;;9.55;;
35990;SDS011;22064;42.672;23.282;2023-06-14T06:04:31;19.05;;;9.88;;
35990;SDS011;22064;42.672;23.282;2023-06-14T06:06:57;19.10;;;9.48;;
35990;SDS011;22064;42.672;23.282;2023-06-14T06:09:23;19.63;;;10.25;;
35990;SDS011;22064;42.672;23.282;2023-06-14T06:11:48;20.02;;;10.23;;
35990;SDS011;22064;42.672;23.282;2023-06-14T06:14:14;19.60;;;9.48;;
35990;SDS011;22064;42.672;23.282;2023-06-14T06:16:40;17.40;;;8.30;;
35990;SDS011;22064;42.672;23.282;2023-06-14T06:19:07;18.15;;;8.95;;
35990;SDS011;22064;42.672;23.282;2023-06-14T06:21:33;18.13;;;8.90;;
35990;SDS011;22064;42.672;23.282;2023-06-14T06:23:59;20.13;;;9.50;;
35990;SDS011;22064;42.672;23.282;2023-06-14T06:26:28;20.17;;;9.80;;
35990;SDS011;22064;42.672;23.282;2023-06-14T06:28:55;21.80;;;9.65;;
35990;SDS011;22064;42.672;23.282;2023-06-14T06:31:21;20.52;;;10.13;;
35990;SDS011;22064;42.672;23.282;2023-06-14T06:33:47;18.17;;;9.38;;
35990;SDS011;22064;42.672;23.282;2023-06-14T06:36:13;21.75;;;9.82;;
35990;SDS011;22064;42.672;23.282;2023-06-14T06:38:39;19.17;;;10.05;;
35990;SDS011;22064;42.672;23.282;2023-06-14T06:41:06;23.27;;;11.00;;
35990;SDS011;22064;42.672;23.282;2023-06-14T06:43:32;20.27;;;9.95;;
35990;SDS011;22064;42.672;23.282;2023-06-14T06:45:58;20.25;;;9.45;;
35990;SDS011;22064;42.672;23.282;2023-06-14T06:48:24;19.65;;;9.93;;
35990;SDS011;22064;42.672;23.282;2023-06-14T06:50:50;18.42;;;10.35;;
35990;SDS011;22064;42.672;23.282;2023-06-14T06:53:16;16.25;;;8.57;;
35990;SDS011;22064;42.672;23.282;2023-06-14T06:55:44;16.42;;;8.30;;
35990;SDS011;22064;42.672;23.282;2023-06-14T06:58:11;17.77;;;9.02;;
35990;SDS011;22064;42.672;23.282;2023-06-14T07:00:38;20.52;;;9.18;;
35990;SDS011;22064;42.672;23.282;2023-06-14T07:03:04;21.55;;;9.48;;
35990;SDS011;22064;42.672;23.282;2023-06-14T07:05:31;16.67;;;8.65;;
35990;SDS011;22064;42.672;23.282;2023-06-14T07:07:57;17.08;;;9.40;;
35990;SDS011;22064;42.672;23.282;2023-06-14T07:10:24;18.30;;;9.48;;
35990;SDS011;22064;42.672;23.282;2023-06-14T07:12:50;20.58;;;10.00;;
35990;SDS011;22064;42.672;23.282;2023-06-14T07:15:16;18.08;;;9.45;;
35990;SDS011;22064;42.672;23.282;2023-06-14T07:17:42;16.70;;;8.98;;
35990;SDS011;22064;42.672;23.282;2023-06-14T07:20:08;19.60;;;9.57;;
35990;SDS011;22064;42.672;23.282;2023-06-14T07:22:39;18.55;;;9.73;;
35990;SDS011;22064;42.672;23.282;2023-06-14T07:25:09;18.65;;;9.23;;
35990;SDS011;22064;42.672;23.282;2023-06-14T07:27:42;16.77;;;8.55;;
35990;SDS011;22064;42.672;23.282;2023-06-14T07:32:35;16.67;;;8.13;;
35990;SDS011;22064;42.672;23.282;2023-06-14T07:35:01;16.75;;;8.15;;
35990;SDS011;22064;42.672;23.282;2023-06-14T07:37:28;17.67;;;9.23;;
35990;SDS011;22064;42.672;23.282;2023-06-14T07:39:54;21.00;;;9.70;;
35990;SDS011;22064;42.672;23.282;2023-06-14T07:42:20;18.98;;;9.45;;
35990;SDS011;22064;42.672;23.282;2023-06-14T07:44:46;18.23;;;9.55;;
35990;SDS011;22064;42.672;23.282;2023-06-14T07:47:12;18.63;;;9.63;;
35990;SDS011;22064;42.672;23.282;2023-06-14T07:49:38;21.30;;;9.98;;
35990;SDS011;22064;42.672;23.282;2023-06-14T07:52:04;19.65;;;9.50;;
35990;SDS011;22064;42.672;23.282;2023-06-14T07:54:30;17.30;;;9.00;;
35990;SDS011;22064;42.672;23.282;2023-06-14T07:56:58;20.08;;;9.93;;
35990;SDS011;22064;42.672;23.282;2023-06-14T07:59:26;19.55;;;10.50;;
35990;SDS011;22064;42.672;23.282;2023-06-14T08:01:52;19.42;;;9.48;;
35990;SDS011;22064;42.672;23.282;2023-06-14T08:04:18;18.85;;;9.68;;
35990;SDS011;22064;42.672;23.282;2023-06-14T08:06:44;19.17;;;9.85;;
35990;SDS011;22064;42.672;23.282;2023-06-14T08:09:11;15.98;;;8.35;;
35990;SDS011;22064;42.672;23.282;2023-06-14T08:11:38;15.98;;;8.98;;
35990;SDS011;22064;42.672;23.282;2023-06-14T08:14:04;17.38;;;9.20;;
35990;SDS011;22064;42.672;23.282;2023-06-14T08:16:30;19.27;;;9.23;;
35990;SDS011;22064;42.672;23.282;2023-06-14T08:18:56;17.92;;;9.65;;
35990;SDS011;22064;42.672;23.282;2023-06-14T08:21:22;18.83;;;9.32;;
35990;SDS011;22064;42.672;23.282;2023-06-14T08:23:48;18.08;;;8.93;;
35990;SDS011;22064;42.672;23.282;2023-06-14T08:26:14;15.57;;;8.68;;
35990;SDS011;22064;42.672;23.282;2023-06-14T08:28:40;17.58;;;9.57;;
35990;SDS011;22064;42.672;23.282;2023-06-14T08:31:06;17.48;;;9.15;;
35990;SDS011;22064;42.672;23.282;2023-06-14T08:33:32;16.42;;;8.85;;
35990;SDS011;22064;42.672;23.282;2023-06-14T08:36:00;18.38;;;8.75;;
35990;SDS011;22064;42.672;23.282;2023-06-14T08:38:26;17.35;;;9.18;;
35990;SDS011;22064;42.672;23.282;2023-06-14T08:40:52;16.27;;;9.50;;
35990;SDS011;22064;42.672;23.282;2023-06-14T08:43:23;18.50;;;9.50;;
35990;SDS011;22064;42.672;23.282;2023-06-14T08:45:51;15.95;;;8.82;;
35990;SDS011;22064;42.672;23.282;2023-06-14T08:48:23;15.18;;;8.38;;
35990;SDS011;22064;42.672;23.282;2023-06-14T08:50:53;16.98;;;9.50;;
35990;SDS011;22064;42.672;23.282;2023-06-14T08:53:35;18.75;;;9.80;;
35990;SDS011;22064;42.672;23.282;2023-06-14T08:56:07;19.42;;;9.98;;
35990;SDS011;22064;42.672;23.282;2023-06-14T08:58:42;20.45;;;9.45;;
35990;SDS011;22064;42.672;23.282;2023-06-14T09:01:11;15.38;;;8.55;;
35990;SDS011;22064;42.672;23.282;2023-06-14T09:03:42;18.13;;;8.50;;
35990;SDS011;22064;42.672;23.282;2023-06-14T09:06:08;20.08;;;9.85;;
35990;SDS011;22064;42.672;23.282;2023-06-14T09:08:42;17.70;;;9.40;;
35990;SDS011;22064;42.672;23.282;2023-06-14T09:11:12;16.05;;;9.18;;
35990;SDS011;22064;42.672;23.282;2023-06-14T09:13:39;20.27;;;10.65;;
35990;SDS011;22064;42.672;23.282;2023-06-14T09:16:06;17.27;;;10.02;;
35990;SDS011;22064;42.672;23.282;2023-06-14T09:18:43;20.15;;;9.45;;
35990;SDS011;22064;42.672;23.282;2023-06-14T09:21:16;15.57;;;8.73;;
35990;SDS011;22064;42.672;23.282;2023-06-14T09:23:43;18.15;;;9.68;;
35990;SDS011;22064;42.672;23.282;2023-06-14T09:26:12;18.40;;;9.23;;
35990;SDS011;22064;42.672;23.282;2023-06-14T09:28:41;17.92;;;9.13;;
35990;SDS011;22064;42.672;23.282;2023-06-14T09:31:18;17.33;;;9.05;;
35990;SDS011;22064;42.672;23.282;2023-06-14T09:33:45;14.70;;;8.80;;
35990;SDS011;22064;42.672;23.282;2023-06-14T09:36:20;15.85;;;8.60;;
35990;SDS011;22064;42.672;23.282;2023-06-14T09:38:55;19.25;;;9.13;;
35990;SDS011;22064;42.672;23.282;2023-06-14T09:41:31;19.52;;;9.95;;
35990;SDS011;22064;42.672;23.282;2023-06-14T09:44:00;14.90;;;8.87;;
35990;SDS011;22064;42.672;23.282;2023-06-14T09:46:28;16.80;;;9.52;;
35990;SDS011;22064;42.672;23.282;2023-06-14T09:48:55;18.85;;;8.73;;
35990;SDS011;22064;42.672;23.282;2023-06-14T09:51:22;14.73;;;8.25;;
35990;SDS011;22064;42.672;23.282;2023-06-14T09:53:48;15.48;;;8.13;;
35990;SDS011;22064;42.672;23.282;2023-06-14T09:56:16;17.48;;;8.38;;
35990;SDS011;22064;42.672;23.282;2023-06-14T09:58:48;14.75;;;8.75;;
35990;SDS011;22064;42.672;23.282;2023-06-14T10:01:19;13.25;;;7.95;;
35990;SDS011;22064;42.672;23.282;2023-06-14T10:03:46;18.45;;;9.32;;
35990;SDS011;22064;42.672;23.282;2023-06-14T10:06:14;17.92;;;9.70;;
35990;SDS011;22064;42.672;23.282;2023-06-14T10:08:40;18.95;;;9.88;;
35990;SDS011;22064;42.672;23.282;2023-06-14T10:11:07;18.75;;;9.50;;
35990;SDS011;22064;42.672;23.282;2023-06-14T10:13:34;17.00;;;9.35;;
35990;SDS011;22064;42.672;23.282;2023-06-14T10:16:11;16.77;;;9.68;;
35990;SDS011;22064;42.672;23.282;2023-06-14T10:21:31;16.60;;;9.40;;
35990;SDS011;22064;42.672;23.282;2023-06-14T10:24:04;16.80;;;8.93;;
35990;SDS011;22064;42.672;23.282;2023-06-14T10:26:33;16.23;;;8.50;;
35990;SDS011;22064;42.672;23.282;2023-06-14T10:29:00;15.50;;;9.20;;
35990;SDS011;22064;42.672;23.282;2023-06-14T10:31:45;16.52;;;9.07;;
35990;SDS011;22064;42.672;23.282;2023-06-14T10:34:22;14.13;;;8.40;;
35990;SDS011;22064;42.672;23.282;2023-06-14T10:37:02;19.35;;;9.20;;
35990;SDS011;22064;42.672;23.282;2023-06-14T10:39:41;17.05;;;9.45;;
35990;SDS011;22064;42.672;23.282;2023-06-14T10:42:08;18.10;;;9.52;;
35990;SDS011;22064;42.672;23.282;2023-06-14T10:44:38;19.08;;;10.57;;
35990;SDS011;22064;42.672;23.282;2023-06-14T10:49:49;20.65;;;11.35;;
35990;SDS011;22064;42.672;23.282;2023-06-14T10:52:20;19.17;;;11.20;;
35990;SDS011;22064;42.672;23.282;2023-06-14T10:57:41;17.05;;;9.20;;
35990;SDS011;22064;42.672;23.282;2023-06-14T11:00:09;20.73;;;9.53;;
35990;SDS011;22064;42.672;23.282;2023-06-14T11:05:20;19.35;;;8.75;;
35990;SDS011;22064;42.672;23.282;2023-06-14T11:07:58;16.58;;;8.90;;
35990;SDS011;22064;42.672;23.282;2023-06-14T11:13:03;17.33;;;9.15;;
35990;SDS011;22064;42.672;23.282;2023-06-14T11:15:30;17.48;;;8.77;;
35990;SDS011;22064;42.672;23.282;2023-06-14T11:17:57;17.65;;;9.50;;
35990;SDS011;22064;42.672;23.282;2023-06-14T11:20:26;15.38;;;8.00;;
35990;SDS011;22064;42.672;23.282;2023-06-14T11:22:52;17.33;;;8.48;;
35990;SDS011;22064;42.672;23.282;2023-06-14T11:25:19;14.88;;;8.15;;
35990;SDS011;22064;42.672;23.282;2023-06-14T11:27:45;16.67;;;8.82;;
35990;SDS011;22064;42.672;23.282;2023-06-14T11:30:12;13.80;;;8.13;;
35990;SDS011;22064;42.672;23.282;2023-06-14T11:32:39;15.40;;;9.10;;
35990;SDS011;22064;42.672;23.282;2023-06-14T11:35:05;14.52;;;8.68;;
35990;SDS011;22064;42.672;23.282;2023-06-14T11:37:32;14.18;;;8.75;;
35990;SDS011;22064;42.672;23.282;2023-06-14T11:40:02;15.35;;;8.32;;
35990;SDS011;22064;42.672;23.282;2023-06-14T11:42:36;15.25;;;7.95;;
35990;SDS011;22064;42.672;23.282;2023-06-14T11:45:03;14.45;;;8.00;;
35990;SDS011;22064;42.672;23.282;2023-06-14T11:50:01;13.13;;;7.78;;
35990;SDS011;22064;42.672;23.282;2023-06-14T11:52:29;14.13;;;7.72;;
35990;SDS011;22064;42.672;23.282;2023-06-14T11:54:56;12.60;;;8.00;;
35990;SDS011;22064;42.672;23.282;2023-06-14T11:57:22;14.40;;;7.93;;
35990;SDS011;22064;42.672;23.282;2023-06-14T11:59:49;14.40;;;8.20;;
35990;SDS011;22064;42.672;23.282;2023-06-14T12:02:16;13.95;;;7.80;;
35990;SDS011;22064;42.672;23.282;2023-06-14T12:04:43;13.10;;;7.78;;
35990;SDS011;22064;42.672;23.282;2023-06-14T12:07:09;14.07;;;7.50;;
35990;SDS011;22064;42.672;23.282;2023-06-14T12:10:03;13.98;;;7.53;;
35990;SDS011;22064;42.672;23.282;2023-06-14T12:12:37;13.00;;;7.05;;
35990;SDS011;22064;42.672;23.282;2023-06-14T12:15:04;11.82;;;6.38;;
35990;SDS011;22064;42.672;23.282;2023-06-14T12:17:32;12.82;;;7.30;;
35990;SDS011;22064;42.672;23.282;2023-06-14T12:19:59;12.43;;;7.07;;
35990;SDS011;22064;42.672;23.282;2023-06-14T12:22:32;11.57;;;6.95;;
35990;SDS011;22064;42.672;23.282;2023-06-14T12:24:59;13.48;;;7.05;;
35990;SDS011;22064;42.672;23.282;2023-06-14T12:27:25;9.80;;;6.75;;
35990;SDS011;22064;42.672;23.282;2023-06-14T12:30:03;14.45;;;6.53;;
35990;SDS011;22064;42.672;23.282;2023-06-14T12:32:30;10.55;;;6.68;;
35990;SDS011;22064;42.672;23.282;2023-06-14T12:34:56;11.50;;;6.43;;
35990;SDS011;22064;42.672;23.282;2023-06-14T12:37:22;15.13;;;6.65;;
35990;SDS011;22064;42.672;23.282;2023-06-14T12:39:48;11.68;;;7.00;;
35990;SDS011;22064;42.672;23.282;2023-06-14T12:42:16;11.32;;;6.63;;
35990;SDS011;22064;42.672;23.282;2023-06-14T12:44:42;10.60;;;6.07;;
35990;SDS011;22064;42.672;23.282;2023-06-14T12:47:08;9.27;;;6.10;;
35990;SDS011;22064;42.672;23.282;2023-06-14T12:49:34;10.73;;;6.10;;
35990;SDS011;22064;42.672;23.282;2023-06-14T12:52:00;9.55;;;6.10;;
35990;SDS011;22064;42.672;23.282;2023-06-14T12:54:26;9.57;;;6.25;;
35990;SDS011;22064;42.672;23.282;2023-06-14T12:56:52;9.93;;;6.68;;
35990;SDS011;22064;42.672;23.282;2023-06-14T12:59:18;10.13;;;6.55;;
35990;SDS011;22064;42.672;23.282;2023-06-14T13:01:44;7.78;;;5.63;;
35990;SDS011;22064;42.672;23.282;2023-06-14T13:04:10;9.50;;;6.13;;
35990;SDS011;22064;42.672;23.282;2023-06-14T13:06:37;10.88;;;6.60;;
35990;SDS011;22064;42.672;23.282;2023-06-14T13:09:03;14.30;;;6.30;;
35990;SDS011;22064;42.672;23.282;2023-06-14T13:11:29;11.55;;;6.25;;
35990;SDS011;22064;42.672;23.282;2023-06-14T13:13:56;10.32;;;5.70;;
35990;SDS011;22064;42.672;23.282;2023-06-14T13:16:22;12.52;;;6.47;;
35990;SDS011;22064;42.672;23.282;2023-06-14T13:18:47;10.60;;;6.63;;
35990;SDS011;22064;42.672;23.282;2023-06-14T13:21:13;11.45;;;6.63;;
35990;SDS011;22064;42.672;23.282;2023-06-14T13:23:39;11.77;;;7.22;;
35990;SDS011;22064;42.672;23.282;2023-06-14T13:26:05;10.32;;;6.18;;
35990;SDS011;22064;42.672;23.282;2023-06-14T13:28:31;10.18;;;6.32;;
35990;SDS011;22064;42.672;23.282;2023-06-14T13:30:58;10.38;;;6.20;;
35990;SDS011;22064;42.672;23.282;2023-06-14T13:33:23;11.55;;;6.38;;
35990;SDS011;22064;42.672;23.282;2023-06-14T13:35:50;15.15;;;7.32;;
35990;SDS011;22064;42.672;23.282;2023-06-14T13:38:18;11.63;;;6.70;;
35990;SDS011;22064;42.672;23.282;2023-06-14T13:40:44;12.35;;;6.93;;
35990;SDS011;22064;42.672;23.282;2023-06-14T13:43:10;12.85;;;6.85;;
35990;SDS011;22064;42.672;23.282;2023-06-14T13:45:36;13.95;;;7.75;;
35990;SDS011;22064;42.672;23.282;2023-06-14T13:48:01;11.90;;;6.63;;
35990;SDS011;22064;42.672;23.282;2023-06-14T13:50:27;15.98;;;7.25;;
35990;SDS011;22064;42.672;23.282;2023-06-14T13:52:54;15.05;;;7.82;;
35990;SDS011;22064;42.672;23.282;2023-06-14T13:55:20;12.50;;;7.07;;
35990;SDS011;22064;42.672;23.282;2023-06-14T13:57:46;13.27;;;7.45;;
35990;SDS011;22064;42.672;23.282;2023-06-14T14:00:12;13.93;;;7.50;;
35990;SDS011;22064;42.672;23.282;2023-06-14T14:02:38;14.45;;;7.63;;
35990;SDS011;22064;42.672;23.282;2023-06-14T14:05:05;14.55;;;8.00;;
35990;SDS011;22064;42.672;23.282;2023-06-14T14:07:32;16.17;;;8.05;;
35990;SDS011;22064;42.672;23.282;2023-06-14T14:09:58;14.38;;;7.57;;
35990;SDS011;22064;42.672;23.282;2023-06-14T14:12:24;17.15;;;7.63;;
35990;SDS011;22064;42.672;23.282;2023-06-14T14:14:50;14.23;;;7.30;;
35990;SDS011;22064;42.672;23.282;2023-06-14T14:17:16;15.65;;;7.30;;
35990;SDS011;22064;42.672;23.282;2023-06-14T14:19:43;14.40;;;7.45;;
35990;SDS011;22064;42.672;23.282;2023-06-14T14:22:09;12.75;;;7.00;;
35990;SDS011;22064;42.672;23.282;2023-06-14T14:24:35;13.93;;;7.95;;
35990;SDS011;22064;42.672;23.282;2023-06-14T14:27:01;15.50;;;7.38;;
35990;SDS011;22064;42.672;23.282;2023-06-14T14:29:27;15.60;;;8.15;;
35990;SDS011;22064;42.672;23.282;2023-06-14T14:31:54;13.80;;;7.10;;
35990;SDS011;22064;42.672;23.282;2023-06-14T14:34:22;13.23;;;7.18;;
35990;SDS011;22064;42.672;23.282;2023-06-14T14:36:49;11.85;;;6.57;;
35990;SDS011;22064;42.672;23.282;2023-06-14T14:39:16;11.25;;;5.75;;
35990;SDS011;22064;42.672;23.282;2023-06-14T14:41:42;10.90;;;5.68;;
35990;SDS011;22064;42.672;23.282;2023-06-14T14:44:08;9.43;;;5.60;;
35990;SDS011;22064;42.672;23.282;2023-06-14T14:46:33;10.35;;;5.28;;
35990;SDS011;22064;42.672;23.282;2023-06-14T14:48:59;11.15;;;5.55;;